createdAt,value
2023-04-18T00:04:54.691Z,15.03
2023-04-18T00:09:56.973Z,14.94
2023-04-18T00:15:00.918Z,14.91
2023-04-18T00:20:07.421Z,14.83
2023-04-18T00:25:10.814Z,14.70
2023-04-18T00:30:13.578Z,14.67
2023-04-18T00:35:15.814Z,14.46
2023-04-18T00:40:18.000Z,14.48
2023-04-18T00:45:20.719Z,14.32
2023-04-18T00:50:27.057Z,14.22
2023-04-18T00:55:30.170Z,14.07
2023-04-18T01:00:33.442Z,14.09
2023-04-18T01:05:42.651Z,13.94
2023-04-18T01:10:45.395Z,13.79
2023-04-18T01:15:51.078Z,13.65
2023-04-18T01:20:55.297Z,13.60
2023-04-18T01:26:00.870Z,13.59
2023-04-18T01:31:04.443Z,13.45
2023-04-18T01:36:07.388Z,13.45
2023-04-18T01:41:10.939Z,13.45
2023-04-18T01:46:13.750Z,13.31
2023-04-18T01:51:16.188Z,13.08
2023-04-18T01:56:18.549Z,13.11
2023-04-18T02:01:20.962Z,12.98
2023-04-18T02:06:23.326Z,12.71
2023-04-18T02:11:25.436Z,12.58
2023-04-18T02:16:27.778Z,12.56
2023-04-18T02:21:35.936Z,12.53
2023-04-18T02:26:39.319Z,12.41
2023-04-18T02:31:42.111Z,12.36
2023-04-18T02:36:47.527Z,12.36
2023-04-18T02:41:50.345Z,12.50
2023-04-18T02:46:54.469Z,12.48
2023-04-18T02:51:59.520Z,12.51
2023-04-18T02:57:02.037Z,12.46
2023-04-18T03:02:19.178Z,12.39
2023-04-18T03:07:26.618Z,12.32
2023-04-18T03:12:29.380Z,12.29
2023-04-18T03:17:31.942Z,12.23
2023-04-18T03:22:34.122Z,12.13
2023-04-18T03:27:41.193Z,12.10
2023-04-18T03:32:47.291Z,12.11
2023-04-18T03:37:49.260Z,12.00
2023-04-18T03:43:00.331Z,11.98
2023-04-18T03:48:03.101Z,11.74
2023-04-18T03:53:10.356Z,11.74
2023-04-18T03:58:14.067Z,11.70
2023-04-18T04:03:17.273Z,11.48
2023-04-18T04:08:22.457Z,11.49
2023-04-18T04:13:25.050Z,11.44
2023-04-18T04:18:31.343Z,11.45
2023-04-18T04:23:35.766Z,11.41
2023-04-18T04:28:39.711Z,11.40
2023-04-18T04:33:44.039Z,11.26
2023-04-18T04:38:52.660Z,11.17
2023-04-18T04:44:03.596Z,11.06
2023-04-18T04:49:08.550Z,11.09
2023-04-18T04:54:11.187Z,11.10
2023-04-18T04:59:14.308Z,10.99
2023-04-18T05:04:19.801Z,10.81
2023-04-18T05:09:22.627Z,10.80
2023-04-18T05:14:25.421Z,10.69
2023-04-18T05:19:27.608Z,10.59
2023-04-18T05:24:32.136Z,10.63
2023-04-18T05:29:34.656Z,10.57
2023-04-18T05:34:38.724Z,10.42
2023-04-18T05:39:42.011Z,10.33
2023-04-18T05:44:47.151Z,10.15
2023-04-18T05:49:52.157Z,10.06
2023-04-18T05:54:55.925Z,10.13
2023-04-18T05:59:59.153Z,10.15
2023-04-18T06:05:01.592Z,10.17
2023-04-18T06:10:07.905Z,10.23
2023-04-18T06:15:11.395Z,10.09
2023-04-18T06:20:29.665Z,10.10
2023-04-18T06:25:31.805Z,10.04
2023-04-18T06:30:34.166Z,9.94
2023-04-18T06:35:36.547Z,10.04
2023-04-18T06:40:38.745Z,10.09
2023-04-18T06:45:40.937Z,10.03
2023-04-18T06:50:44.014Z,10.18
2023-04-18T06:55:45.972Z,10.25
2023-04-18T07:01:01.682Z,10.33
2023-04-18T07:06:11.062Z,10.45
2023-04-18T07:11:18.634Z,10.48
2023-04-18T07:16:20.995Z,10.70
2023-04-18T07:21:24.072Z,10.81
2023-04-18T07:26:27.703Z,10.94
2023-04-18T07:31:31.403Z,11.10
2023-04-18T07:36:33.700Z,11.29
2023-04-18T07:41:36.965Z,11.53
2023-04-18T07:46:42.010Z,11.74
2023-04-18T07:51:44.683Z,11.81
2023-04-18T07:56:46.992Z,11.93
2023-04-18T08:01:49.603Z,12.08
2023-04-18T08:06:51.747Z,12.22
2023-04-18T08:11:55.419Z,12.41
2023-04-18T08:16:57.496Z,12.73
2023-04-18T08:22:10.526Z,12.91
2023-04-18T08:27:12.911Z,13.10
2023-04-18T08:32:15.003Z,13.35
2023-04-18T08:37:17.510Z,13.87
2023-04-18T08:42:19.646Z,14.34
2023-04-18T08:47:22.155Z,14.89
2023-04-18T08:52:30.405Z,16.13
2023-04-18T08:57:33.444Z,17.54
2023-04-18T09:02:43.217Z,18.32
2023-04-18T09:07:49.805Z,18.80
2023-04-18T09:12:52.435Z,19.22
2023-04-18T09:17:58.208Z,19.93
2023-04-18T09:23:04.804Z,20.56
2023-04-18T09:28:33.171Z,20.98
2023-04-18T09:33:37.139Z,21.70
2023-04-18T09:38:41.281Z,21.14
2023-04-18T09:43:44.488Z,21.56
2023-04-18T09:48:46.416Z,22.19
2023-04-18T09:53:50.342Z,21.90
2023-04-18T09:58:57.365Z,22.73
2023-04-18T10:04:02.154Z,22.99
2023-04-18T10:09:04.906Z,23.06
2023-04-18T10:14:10.374Z,23.66
2023-04-18T10:19:24.435Z,24.13
2023-04-18T10:24:54.471Z,23.89
2023-04-18T10:29:57.480Z,24.02
2023-04-18T10:35:00.648Z,23.82
2023-04-18T10:40:06.961Z,23.73
2023-04-18T10:45:22.767Z,24.57
2023-04-18T10:50:25.054Z,24.30
2023-04-18T10:55:29.378Z,24.40
2023-04-18T11:00:31.712Z,25.29
2023-04-18T11:05:34.756Z,25.38
2023-04-18T11:10:37.233Z,25.61
2023-04-18T11:15:39.987Z,25.25
2023-04-18T11:20:50.089Z,25.76
2023-04-18T11:25:54.745Z,25.78
2023-04-18T11:30:59.512Z,25.96
2023-04-18T11:36:02.673Z,25.20
2023-04-18T11:41:04.824Z,25.46
2023-04-18T11:46:06.793Z,24.54
2023-04-18T11:51:32.696Z,24.00
2023-04-18T11:56:36.636Z,23.23
2023-04-18T12:01:39.124Z,22.44
2023-04-18T12:06:52.192Z,22.85
2023-04-18T12:12:02.976Z,22.56
2023-04-18T12:17:04.979Z,22.71
2023-04-18T12:22:08.205Z,22.23
2023-04-18T12:27:12.311Z,21.99
2023-04-18T12:32:14.308Z,22.04
2023-04-18T12:37:16.985Z,22.08
2023-04-18T12:42:19.385Z,22.08
2023-04-18T12:47:22.118Z,21.99
2023-04-18T12:52:24.227Z,21.86
2023-04-18T12:57:26.755Z,21.74
2023-04-18T13:02:29.486Z,21.78
2023-04-18T13:07:31.765Z,21.89
2023-04-18T13:12:34.507Z,21.72
2023-04-18T13:17:38.902Z,21.85
2023-04-18T13:22:42.040Z,21.70
2023-04-18T13:27:46.019Z,21.64
2023-04-18T13:32:48.352Z,21.65
2023-04-18T13:37:51.096Z,21.62
2023-04-18T13:42:53.571Z,21.65
2023-04-18T13:47:56.342Z,21.62
2023-04-18T13:52:58.929Z,21.56
2023-04-18T13:58:01.968Z,21.31
2023-04-18T14:03:07.231Z,21.37
2023-04-18T14:08:09.612Z,21.51
2023-04-18T14:13:11.949Z,21.67
2023-04-18T14:18:14.226Z,21.62
2023-04-18T14:23:16.598Z,21.47
2023-04-18T14:28:21.929Z,21.51
2023-04-18T14:33:24.623Z,21.52
2023-04-18T14:38:27.012Z,21.65
2023-04-18T14:43:28.910Z,21.76
2023-04-18T14:48:30.830Z,21.45
2023-04-18T14:53:33.242Z,21.59
2023-04-18T14:58:35.479Z,21.66
2023-04-18T15:03:37.805Z,21.71
2023-04-18T15:08:40.147Z,21.83
2023-04-18T15:13:42.346Z,21.88
2023-04-18T15:18:45.400Z,21.80
2023-04-18T15:23:47.385Z,21.74
2023-04-18T15:28:49.349Z,21.88
2023-04-18T15:33:51.201Z,21.94
2023-04-18T15:38:53.469Z,22.00
2023-04-18T15:43:55.684Z,22.17
2023-04-18T15:48:57.974Z,22.09
2023-04-18T15:54:00.395Z,22.10
2023-04-18T15:59:04.458Z,21.90
2023-04-18T16:04:06.609Z,21.79
2023-04-18T16:09:08.804Z,21.96
2023-04-18T16:14:10.989Z,22.09
2023-04-18T16:19:14.542Z,21.94
2023-04-18T16:24:16.791Z,21.92
2023-04-18T16:29:18.731Z,22.04
2023-04-18T16:34:20.908Z,22.06
2023-04-18T16:39:22.954Z,22.00
2023-04-18T16:44:24.871Z,21.91
2023-04-18T16:49:26.956Z,21.89
2023-04-18T16:54:29.190Z,21.92
2023-04-18T16:59:31.311Z,21.91
2023-04-18T17:04:33.459Z,21.87
2023-04-18T17:09:35.820Z,21.85
2023-04-18T17:14:37.917Z,21.87
2023-04-18T17:19:40.429Z,21.84
2023-04-18T17:24:42.900Z,21.74
2023-04-18T17:29:45.040Z,21.59
2023-04-18T17:34:47.480Z,21.48
2023-04-18T17:39:50.105Z,21.46
2023-04-18T17:44:52.056Z,21.28
2023-04-18T17:49:58.210Z,21.27
2023-04-18T17:55:01.757Z,21.27
2023-04-18T18:00:09.975Z,21.24
2023-04-18T18:05:16.797Z,21.16
2023-04-18T18:10:19.419Z,21.11
2023-04-18T18:15:21.464Z,21.09
2023-04-18T18:20:23.724Z,21.01
2023-04-18T18:25:26.343Z,20.92
2023-04-18T18:30:29.005Z,20.75
2023-04-18T18:35:31.413Z,20.66
2023-04-18T18:40:33.768Z,20.49
2023-04-18T18:45:36.017Z,20.34
2023-04-18T18:50:38.167Z,20.14
2023-04-18T18:55:40.248Z,19.93
2023-04-18T19:00:42.452Z,19.77
2023-04-18T19:05:44.945Z,19.56
2023-04-18T19:10:49.417Z,19.43
2023-04-18T19:15:51.902Z,19.29
2023-04-18T19:20:53.957Z,19.17
2023-04-18T19:25:57.039Z,19.00
2023-04-18T19:30:59.240Z,18.95
2023-04-18T19:36:08.484Z,18.80
2023-04-18T19:41:10.836Z,18.74
2023-04-18T19:46:13.381Z,18.65
2023-04-18T19:51:15.701Z,18.58
2023-04-18T19:56:18.109Z,18.53
2023-04-18T20:01:21.137Z,18.38
2023-04-18T20:06:25.285Z,18.29
2023-04-18T20:11:27.416Z,18.25
2023-04-18T20:16:29.975Z,18.03
2023-04-18T20:21:32.165Z,17.73
2023-04-18T20:26:34.380Z,17.69
2023-04-18T20:31:42.316Z,17.60
2023-04-18T20:36:49.330Z,17.49
2023-04-18T20:41:53.291Z,17.60
2023-04-18T20:46:55.674Z,17.65
2023-04-18T20:51:57.700Z,17.62
2023-04-18T20:56:59.814Z,17.45
2023-04-18T21:02:02.071Z,17.31
2023-04-18T21:07:04.441Z,17.16
2023-04-18T21:12:07.083Z,16.97
2023-04-18T21:17:10.825Z,16.83
2023-04-18T21:22:17.018Z,16.73
2023-04-18T21:27:19.696Z,16.64
2023-04-18T21:32:21.845Z,16.58
2023-04-18T21:37:25.781Z,16.53
2023-04-18T21:42:28.254Z,16.44
2023-04-18T21:47:32.570Z,16.43
2023-04-18T21:52:34.785Z,16.30
2023-04-18T21:57:37.362Z,16.26
2023-04-18T22:02:42.965Z,16.21
2023-04-18T22:07:54.922Z,16.16
2023-04-18T22:13:00.601Z,16.11
2023-04-18T22:18:05.414Z,16.03
2023-04-18T22:23:11.757Z,15.96
2023-04-18T22:28:14.834Z,15.91
2023-04-18T22:33:17.065Z,15.80
2023-04-18T22:38:19.298Z,14.76
2023-04-18T22:43:23.948Z,14.82
2023-04-18T22:48:26.227Z,14.94
2023-04-18T22:53:28.437Z,15.00
2023-04-18T22:58:31.735Z,15.07
2023-04-18T23:03:36.830Z,15.02
2023-04-18T23:08:39.232Z,15.02
2023-04-18T23:13:41.775Z,14.99
2023-04-18T23:18:43.850Z,15.02
2023-04-18T23:23:49.721Z,15.01
2023-04-18T23:28:52.697Z,14.93
2023-04-18T23:33:58.219Z,14.96
2023-04-18T23:39:00.379Z,14.97
2023-04-18T23:44:02.453Z,14.94
2023-04-18T23:49:04.764Z,14.89
2023-04-18T23:54:07.806Z,14.80
2023-04-18T23:59:10.052Z,14.78
